Pwllheli, United Kingdom
Current Conditions -  °F | °C
As of 10:50 AM on Thursday 27 Nov 2014 (Local Time) from EGOV Reporting Station
Few Clouds Few Clouds  
Wind Chill:   Ceiling: Unl
Heat Index:   Visibility: 6mi
Dew Point:   Wind: 6mph
Humidity: 76%   Direction: 130°SE
Pressure: 29.56"   Gusts: NA
Location:  52.89°N, 4.41°W
Report Text: EGOV 271050Z 13005KT 9999 FEW010 09/05 Q1001 BLU NOSIG
Loading
Personal Weather Stations






























Interactive Weather Map New forecast layout! Learn more

10-Day Weather Forecast

Advertisements
Track Severe Weather on mobile